< < Back
Terminal Aerodrome Forecast


Current Version              Previous Versions:   1  2  3  4  5  6  7  8  9  

Terminal Aerodrome Forecast

616
FTUS44 KOHX 290000 CCA
TAFBNA
TAF COR
KBNA 290015Z 2900/2924 33007KT P6SM VCTS SCT050CB BKN080 BKN250
     FM290200 08004KT P6SM SCT080
     FM290500 13002KT P6SM SKC
     FM291800 18006KT P6SM SCT040=

Latest METAR

966
SAUS70 KWBC 291000 RRG
MTRBNA
METAR KBNA 290953Z 18004KT 6SM BR FEW055 22/22 A3001 RMK AO2 SLP155
T02220217


USA.gov is the U.S. government's official web portal to all federal, state and local government web resources and services.